createdAt,value
2022-12-01T00:03:32.964Z,100.00
2022-12-01T00:08:34.708Z,100.00
2022-12-01T00:13:37.180Z,100.00
2022-12-01T00:18:38.948Z,100.00
2022-12-01T00:23:43.853Z,100.00
2022-12-01T00:28:52.560Z,100.00
2022-12-01T00:33:54.799Z,100.00
2022-12-01T00:38:57.504Z,100.00
2022-12-01T00:43:59.153Z,100.00
2022-12-01T00:49:00.862Z,100.00
2022-12-01T00:54:02.526Z,100.00
2022-12-01T00:59:04.215Z,100.00
2022-12-01T01:04:06.645Z,100.00
2022-12-01T01:09:08.311Z,100.00
2022-12-01T01:14:10.197Z,100.00
2022-12-01T01:19:12.426Z,100.00
2022-12-01T01:24:14.083Z,100.00
2022-12-01T01:29:15.745Z,100.00
2022-12-01T01:34:17.401Z,100.00
2022-12-01T01:39:19.333Z,100.00
2022-12-01T01:44:49.168Z,100.00
2022-12-01T01:49:52.206Z,100.00
2022-12-01T01:54:55.733Z,100.00
2022-12-01T02:00:07.520Z,100.00
2022-12-01T02:05:21.425Z,100.00
2022-12-01T02:10:37.964Z,100.00
2022-12-01T02:16:00.961Z,100.00
2022-12-01T02:21:29.477Z,100.00
2022-12-01T02:27:09.485Z,100.00
2022-12-01T02:32:45.965Z,100.00
2022-12-01T02:38:24.131Z,100.00
2022-12-01T02:44:04.988Z,100.00
2022-12-01T02:49:24.082Z,100.00
2022-12-01T02:54:29.932Z,100.00
2022-12-01T02:59:31.634Z,100.00
2022-12-01T03:05:01.517Z,100.00
2022-12-01T03:10:17.873Z,100.00
2022-12-01T03:15:30.557Z,100.00
2022-12-01T03:20:39.680Z,100.00
2022-12-01T03:25:45.306Z,100.00
2022-12-01T03:30:50.850Z,100.00
2022-12-01T03:35:59.798Z,100.00
2022-12-01T03:41:09.435Z,100.00
2022-12-01T03:46:17.773Z,100.00
2022-12-01T03:51:30.495Z,100.00
2022-12-01T03:56:38.665Z,100.00
2022-12-01T04:01:40.477Z,100.00
2022-12-01T04:06:48.891Z,100.00
2022-12-01T04:12:08.780Z,100.00
2022-12-01T04:17:10.543Z,100.00
2022-12-01T04:22:12.212Z,100.00
2022-12-01T04:27:13.958Z,100.00
2022-12-01T04:32:15.815Z,100.00
2022-12-01T04:37:18.058Z,100.00
2022-12-01T04:42:19.754Z,100.00
2022-12-01T04:47:21.418Z,100.00
2022-12-01T04:52:23.126Z,100.00
2022-12-01T04:57:24.791Z,100.00
2022-12-01T05:02:26.521Z,100.00
2022-12-01T05:07:28.362Z,100.00
2022-12-01T05:12:30.365Z,100.00
2022-12-01T05:17:36.741Z,100.00
2022-12-01T05:23:04.368Z,100.00
2022-12-01T05:28:00.574Z,100.00
2022-12-01T05:33:02.249Z,100.00
2022-12-01T05:38:07.723Z,100.00
2022-12-01T05:43:09.947Z,100.00
2022-12-01T05:48:11.635Z,100.00
2022-12-01T05:53:14.719Z,100.00
2022-12-01T05:58:16.403Z,100.00
2022-12-01T06:03:18.140Z,100.00
2022-12-01T06:08:19.831Z,100.00
2022-12-01T06:13:21.612Z,100.00
2022-12-01T06:18:24.225Z,100.00
2022-12-01T06:23:30.199Z,100.00
2022-12-01T06:28:32.527Z,100.00
2022-12-01T06:33:34.595Z,100.00
2022-12-01T06:38:37.182Z,100.00
2022-12-01T06:43:38.958Z,100.00
2022-12-01T06:48:40.712Z,100.00
2022-12-01T06:53:42.420Z,100.00
2022-12-01T06:58:44.107Z,100.00
2022-12-01T07:03:50.338Z,100.00
2022-12-01T07:08:53.155Z,100.00
2022-12-01T07:13:55.992Z,100.00
2022-12-01T07:18:57.743Z,100.00
2022-12-01T07:23:59.414Z,100.00
2022-12-01T07:29:01.098Z,100.00
2022-12-01T07:34:02.863Z,100.00
2022-12-01T07:39:06.606Z,100.00
2022-12-01T07:44:10.577Z,100.00
2022-12-01T07:49:14.907Z,100.00
2022-12-01T07:54:17.717Z,100.00
2022-12-01T07:59:19.456Z,99.40
2022-12-01T08:04:21.207Z,98.91
2022-12-01T08:09:24.550Z,100.00
2022-12-01T08:14:26.249Z,100.00
2022-12-01T08:19:29.353Z,100.00
2022-12-01T08:24:31.061Z,100.00
2022-12-01T08:29:33.211Z,100.00
2022-12-01T08:34:38.736Z,100.00
2022-12-01T08:39:40.481Z,100.00
2022-12-01T08:44:42.239Z,100.00
2022-12-01T08:49:43.985Z,99.14
2022-12-01T08:54:45.919Z,100.00
2022-12-01T08:59:49.793Z,100.00
2022-12-01T09:04:51.908Z,99.17
2022-12-01T09:09:53.619Z,99.58
2022-12-01T09:14:55.327Z,100.00
2022-12-01T09:19:57.036Z,100.00
2022-12-01T09:24:58.749Z,100.00
2022-12-01T09:30:00.456Z,100.00
2022-12-01T09:35:02.119Z,100.00
2022-12-01T09:40:05.794Z,100.00
2022-12-01T09:45:25.730Z,99.74
2022-12-01T09:50:30.101Z,99.87
2022-12-01T09:55:32.269Z,97.91
2022-12-01T10:00:38.195Z,97.41
2022-12-01T10:06:18.556Z,95.36
2022-12-01T10:11:30.077Z,95.89
2022-12-01T10:16:49.677Z,94.76
2022-12-01T10:22:18.840Z,95.79
2022-12-01T10:27:33.323Z,98.71
2022-12-01T10:32:57.693Z,97.04
2022-12-01T10:38:01.922Z,98.85
2022-12-01T10:43:04.060Z,97.84
2022-12-01T10:48:23.087Z,99.27
2022-12-01T10:53:28.911Z,99.53
2022-12-01T10:58:34.441Z,99.81
2022-12-01T11:03:36.944Z,99.19
2022-12-01T11:08:50.710Z,100.00
2022-12-01T11:13:53.922Z,100.00
2022-12-01T11:19:26.580Z,100.00
2022-12-01T11:24:44.299Z,100.00
2022-12-01T11:29:49.695Z,100.00
2022-12-01T11:34:56.924Z,100.00
2022-12-01T11:40:08.345Z,100.00
2022-12-01T11:45:19.141Z,98.75
2022-12-01T11:50:27.429Z,97.89
2022-12-01T11:55:30.760Z,97.33
2022-12-01T12:00:53.346Z,96.57
2022-12-01T12:06:18.239Z,96.07
2022-12-01T12:11:58.933Z,95.94
2022-12-01T12:17:19.523Z,95.86
2022-12-01T12:22:29.344Z,96.36
2022-12-01T12:27:49.354Z,96.37
2022-12-01T12:33:19.017Z,98.39
2022-12-01T12:38:26.370Z,97.90
2022-12-01T12:43:41.035Z,95.18
2022-12-01T12:49:19.128Z,96.37
2022-12-01T12:54:29.921Z,97.80
2022-12-01T12:59:42.032Z,97.47
2022-12-01T13:04:52.899Z,97.00
2022-12-01T13:10:06.507Z,96.80
2022-12-01T13:15:27.808Z,94.86
2022-12-01T13:20:32.123Z,94.72
2022-12-01T13:25:39.609Z,94.15
2022-12-01T13:30:41.441Z,93.97
2022-12-01T13:35:43.253Z,94.61
2022-12-01T13:40:45.025Z,94.67
2022-12-01T13:45:48.521Z,94.99
2022-12-01T13:51:05.011Z,94.96
2022-12-01T13:56:15.491Z,95.43
2022-12-01T14:01:20.767Z,95.14
2022-12-01T14:06:27.672Z,95.80
2022-12-01T14:11:30.865Z,95.28
2022-12-01T14:16:51.682Z,95.01
2022-12-01T14:21:53.425Z,93.80
2022-12-01T14:26:55.569Z,95.80
2022-12-01T14:32:00.033Z,95.94
2022-12-01T14:37:16.313Z,96.31
2022-12-01T14:42:53.423Z,97.38
2022-12-01T14:48:09.423Z,96.72
2022-12-01T14:53:29.391Z,95.51
2022-12-01T14:58:32.122Z,98.31
2022-12-01T15:03:48.895Z,98.23
2022-12-01T15:14:38.596Z,99.30
2022-12-01T15:19:41.532Z,99.23
2022-12-01T15:24:44.107Z,98.68
2022-12-01T15:29:47.098Z,99.21
2022-12-01T15:34:53.000Z,99.93
2022-12-01T15:40:25.587Z,99.50
2022-12-01T15:45:22.422Z,98.62
2022-12-01T15:50:31.168Z,98.19
2022-12-01T15:55:38.890Z,98.87
2022-12-01T16:00:40.723Z,100.00
2022-12-01T16:05:44.629Z,99.79
2022-12-01T16:11:06.348Z,98.83
2022-12-01T16:16:35.911Z,99.04
2022-12-01T16:22:00.076Z,98.83
2022-12-01T16:27:07.715Z,99.23
2022-12-01T16:32:21.075Z,99.79
2022-12-01T16:37:23.747Z,97.91
2022-12-01T16:42:25.423Z,96.28
2022-12-01T16:47:27.125Z,96.21
2022-12-01T16:52:45.552Z,95.62
2022-12-01T16:57:47.634Z,96.29
2022-12-01T17:02:49.516Z,96.31
2022-12-01T17:07:51.845Z,96.13
2022-12-01T17:12:54.747Z,95.96
2022-12-01T17:17:56.413Z,94.71
2022-12-01T17:22:59.105Z,94.13
2022-12-01T17:28:00.907Z,94.85
2022-12-01T17:33:02.582Z,94.44
2022-12-01T17:38:04.521Z,94.17
2022-12-01T17:43:08.223Z,93.47
2022-12-01T17:48:10.810Z,93.84
2022-12-01T17:53:12.488Z,93.19
2022-12-01T17:58:14.396Z,92.50
2022-12-01T18:03:16.353Z,92.62
2022-12-01T18:08:18.050Z,92.59
2022-12-01T18:13:21.541Z,91.82
2022-12-01T18:18:23.572Z,93.02
2022-12-01T18:23:25.886Z,93.78
2022-12-01T18:28:27.563Z,93.07
2022-12-01T18:33:29.256Z,93.20
2022-12-01T18:38:31.151Z,92.71
2022-12-01T18:43:33.609Z,92.77
2022-12-01T18:48:35.619Z,92.33
2022-12-01T18:53:37.535Z,92.36
2022-12-01T18:58:39.972Z,93.59
2022-12-01T19:03:41.657Z,93.19
2022-12-01T19:08:44.566Z,93.36
2022-12-01T19:13:46.620Z,93.56
2022-12-01T19:18:48.557Z,92.84
2022-12-01T19:23:50.867Z,93.58
2022-12-01T19:28:52.769Z,92.87
2022-12-01T19:33:55.030Z,91.96
2022-12-01T19:39:00.466Z,92.15
2022-12-01T19:44:03.180Z,94.27
2022-12-01T19:49:05.727Z,94.15
2022-12-01T19:54:12.930Z,94.41
2022-12-01T19:59:15.047Z,94.44
2022-12-01T20:04:16.717Z,94.91
2022-12-01T20:09:19.118Z,95.06
2022-12-01T20:14:20.987Z,95.09
2022-12-01T20:19:22.782Z,94.23
2022-12-01T20:24:25.414Z,93.53
2022-12-01T20:29:29.520Z,94.22
2022-12-01T20:34:34.226Z,95.37
2022-12-01T20:39:38.193Z,95.21
2022-12-01T20:44:40.479Z,94.22
2022-12-01T20:49:42.255Z,93.97
2022-12-01T20:54:44.802Z,93.11
2022-12-01T20:59:46.456Z,92.99
2022-12-01T21:04:48.339Z,92.38
2022-12-01T21:09:50.274Z,92.74
2022-12-01T21:15:20.986Z,93.90
2022-12-01T21:20:31.112Z,93.56
2022-12-01T21:25:33.573Z,93.77
2022-12-01T21:30:35.274Z,94.45
2022-12-01T21:35:37.004Z,94.60
2022-12-01T21:40:42.332Z,94.94
2022-12-01T21:45:44.411Z,94.75
2022-12-01T21:50:50.855Z,95.40
2022-12-01T21:55:56.188Z,94.54
2022-12-01T22:00:59.459Z,95.05
2022-12-01T22:06:28.171Z,95.05
2022-12-01T22:11:27.091Z,96.59
2022-12-01T22:16:30.066Z,96.84
2022-12-01T22:21:35.191Z,96.61
2022-12-01T22:26:38.195Z,96.78
2022-12-01T22:31:39.901Z,98.59
2022-12-01T22:36:41.814Z,96.72
2022-12-01T22:41:44.285Z,97.61
2022-12-01T22:46:46.010Z,97.87
2022-12-01T22:52:15.192Z,97.04
2022-12-01T22:57:19.747Z,97.51
2022-12-01T23:02:33.234Z,98.54
2022-12-01T23:07:41.502Z,97.15
2022-12-01T23:12:44.907Z,96.39
2022-12-01T23:17:47.428Z,96.73
2022-12-01T23:22:49.094Z,97.06
2022-12-01T23:27:52.968Z,96.75
2022-12-01T23:33:14.374Z,96.61
2022-12-01T23:38:19.908Z,96.99
2022-12-01T23:43:34.717Z,96.87
2022-12-01T23:48:42.504Z,96.30
2022-12-01T23:53:44.548Z,95.61
2022-12-01T23:58:46.451Z,95.88
